Little Birch, West Virginia
Current Conditions -  °F | °C
As of 5:55 AM on Wednesday 22 Oct 2014 (Local Time) from KW22 Reporting Station
Drizzle Drizzle  
Wind Chill: 40°   Ceiling: NA
Heat Index: 43°   Visibility: 2mi
Dew Point: 43°   Wind: 5mph
Humidity: 100%   Direction: 300°WNW
Pressure: 30.06"   Gusts: NA
Location:  38.58°N, 80.71°W
Report Text: KW22 220955Z AUTO 30004KT 2SM -DZ 06/06 A3006 RMK AO2
Loading
Personal Weather Stations






























Interactive Weather Map
Tropical Storm Tracking
New forecast layout! Learn more

10-Day Weather Forecast

Advertisements
Track Severe Weather on mobile